sensor_id;sensor_type;location;lat;lon;timestamp;pressure;altitude;pressure_sealevel;temperature;humidity
72061;BME280;59925;52.136;5.420;2024-02-28T00:00:34;102126.09;;;2.12;100.00
72061;BME280;59925;52.136;5.420;2024-02-28T00:03:01;102134.66;;;2.14;100.00
72061;BME280;59925;52.136;5.420;2024-02-28T00:05:27;102131.22;;;2.13;100.00
72061;BME280;59925;52.136;5.420;2024-02-28T00:07:54;102132.22;;;2.12;100.00
72061;BME280;59925;52.136;5.420;2024-02-28T00:10:20;102135.66;;;2.13;100.00
72061;BME280;59925;52.136;5.420;2024-02-28T00:12:47;102138.16;;;2.14;100.00
72061;BME280;59925;52.136;5.420;2024-02-28T00:15:14;102128.72;;;2.12;100.00
72061;BME280;59925;52.136;5.420;2024-02-28T00:17:42;102135.41;;;2.08;100.00
72061;BME280;59925;52.136;5.420;2024-02-28T00:20:09;102129.00;;;2.02;100.00
72061;BME280;59925;52.136;5.420;2024-02-28T00:22:36;102131.19;;;1.98;100.00
72061;BME280;59925;52.136;5.420;2024-02-28T00:25:06;102134.38;;;1.94;100.00
72061;BME280;59925;52.136;5.420;2024-02-28T00:27:33;102127.81;;;1.90;100.00
72061;BME280;59925;52.136;5.420;2024-02-28T00:30:01;102129.44;;;1.91;100.00
72061;BME280;59925;52.136;5.420;2024-02-28T00:32:27;102130.81;;;1.87;100.00
72061;BME280;59925;52.136;5.420;2024-02-28T00:34:54;102127.50;;;1.84;100.00
72061;BME280;59925;52.136;5.420;2024-02-28T00:37:20;102132.50;;;1.79;100.00
72061;BME280;59925;52.136;5.420;2024-02-28T00:39:49;102133.22;;;1.73;100.00
72061;BME280;59925;52.136;5.420;2024-02-28T00:42:16;102135.22;;;1.71;100.00
72061;BME280;59925;52.136;5.420;2024-02-28T00:44:42;102131.59;;;1.72;100.00
72061;BME280;59925;52.136;5.420;2024-02-28T00:47:09;102136.41;;;1.68;100.00
72061;BME280;59925;52.136;5.420;2024-02-28T00:49:36;102133.31;;;1.65;100.00
72061;BME280;59925;52.136;5.420;2024-02-28T00:52:03;102134.31;;;1.64;100.00
72061;BME280;59925;52.136;5.420;2024-02-28T00:54:30;102124.09;;;1.61;100.00
72061;BME280;59925;52.136;5.420;2024-02-28T00:56:56;102135.19;;;1.56;100.00
72061;BME280;59925;52.136;5.420;2024-02-28T00:59:22;102132.25;;;1.51;100.00
72061;BME280;59925;52.136;5.420;2024-02-28T01:01:49;102134.22;;;1.49;100.00
72061;BME280;59925;52.136;5.420;2024-02-28T01:04:15;102128.69;;;1.44;100.00
72061;BME280;59925;52.136;5.420;2024-02-28T01:06:42;102129.19;;;1.39;100.00
72061;BME280;59925;52.136;5.420;2024-02-28T01:09:08;102128.38;;;1.38;100.00
72061;BME280;59925;52.136;5.420;2024-02-28T01:11:35;102124.25;;;1.36;100.00
72061;BME280;59925;52.136;5.420;2024-02-28T01:14:02;102120.97;;;1.34;100.00
72061;BME280;59925;52.136;5.420;2024-02-28T01:16:28;102121.97;;;1.33;100.00
72061;BME280;59925;52.136;5.420;2024-02-28T01:18:55;102120.50;;;1.30;100.00
72061;BME280;59925;52.136;5.420;2024-02-28T01:21:22;102123.16;;;1.30;100.00
72061;BME280;59925;52.136;5.420;2024-02-28T01:23:48;102126.78;;;1.29;100.00
72061;BME280;59925;52.136;5.420;2024-02-28T01:26:15;102123.16;;;1.30;100.00
72061;BME280;59925;52.136;5.420;2024-02-28T01:28:41;102122.50;;;1.28;100.00
72061;BME280;59925;52.136;5.420;2024-02-28T01:31:09;102125.94;;;1.29;100.00
72061;BME280;59925;52.136;5.420;2024-02-28T01:33:35;102120.19;;;1.25;100.00
72061;BME280;59925;52.136;5.420;2024-02-28T01:36:02;102120.19;;;1.25;100.00
72061;BME280;59925;52.136;5.420;2024-02-28T01:38:29;102121.19;;;1.24;100.00
72061;BME280;59925;52.136;5.420;2024-02-28T01:40:55;102109.31;;;1.20;100.00
72061;BME280;59925;52.136;5.420;2024-02-28T01:43:22;102115.63;;;1.19;100.00
72061;BME280;59925;52.136;5.420;2024-02-28T01:45:49;102112.69;;;1.14;100.00
72061;BME280;59925;52.136;5.420;2024-02-28T01:48:16;102116.31;;;1.13;100.00
72061;BME280;59925;52.136;5.420;2024-02-28T01:50:43;102123.59;;;1.11;100.00
72061;BME280;59925;52.136;5.420;2024-02-28T01:53:10;102118.97;;;1.13;100.00
72061;BME280;59925;52.136;5.420;2024-02-28T01:55:38;102121.47;;;1.06;100.00
72061;BME280;59925;52.136;5.420;2024-02-28T01:58:05;102114.06;;;1.01;100.00
72061;BME280;59925;52.136;5.420;2024-02-28T02:00:32;102118.06;;;0.97;100.00
72061;BME280;59925;52.136;5.420;2024-02-28T02:03:02;102121.88;;;0.95;100.00
72061;BME280;59925;52.136;5.420;2024-02-28T02:05:29;102124.66;;;0.93;100.00
72061;BME280;59925;52.136;5.420;2024-02-28T02:07:58;102124.66;;;0.93;100.00
72061;BME280;59925;52.136;5.420;2024-02-28T02:10:26;102122.22;;;0.91;100.00
72061;BME280;59925;52.136;5.420;2024-02-28T02:12:52;102123.53;;;0.87;100.00
72061;BME280;59925;52.136;5.420;2024-02-28T02:15:19;102116.78;;;0.85;100.00
72061;BME280;59925;52.136;5.420;2024-02-28T02:17:46;102120.75;;;0.89;100.00
72061;BME280;59925;52.136;5.420;2024-02-28T02:20:14;102126.88;;;0.81;100.00
72061;BME280;59925;52.136;5.420;2024-02-28T02:22:40;102126.56;;;0.76;100.00
72061;BME280;59925;52.136;5.420;2024-02-28T02:25:07;102131.69;;;0.78;100.00
72061;BME280;59925;52.136;5.420;2024-02-28T02:27:34;102127.03;;;0.80;100.00
72061;BME280;59925;52.136;5.420;2024-02-28T02:30:01;102124.72;;;0.85;100.00
72061;BME280;59925;52.136;5.420;2024-02-28T02:32:27;102108.88;;;0.85;100.00
72061;BME280;59925;52.136;5.420;2024-02-28T02:34:55;102117.28;;;0.88;100.00
72061;BME280;59925;52.136;5.420;2024-02-28T02:37:22;102116.78;;;0.85;100.00
72061;BME280;59925;52.136;5.420;2024-02-28T02:39:48;102121.56;;;0.89;100.00
72061;BME280;59925;52.136;5.420;2024-02-28T02:42:14;102116.47;;;0.88;100.00
72061;BME280;59925;52.136;5.420;2024-02-28T02:44:42;102122.88;;;0.94;100.00
72061;BME280;59925;52.136;5.420;2024-02-28T02:47:08;102112.50;;;0.92;100.00
72061;BME280;59925;52.136;5.420;2024-02-28T02:49:35;102116.59;;;0.95;100.00
72061;BME280;59925;52.136;5.420;2024-02-28T02:52:01;102109.13;;;0.98;100.00
72061;BME280;59925;52.136;5.420;2024-02-28T02:54:28;102111.66;;;0.91;100.00
72061;BME280;59925;52.136;5.420;2024-02-28T02:56:54;102116.47;;;0.88;100.00
72061;BME280;59925;52.136;5.420;2024-02-28T02:59:21;102116.28;;;0.89;100.00
72061;BME280;59925;52.136;5.420;2024-02-28T03:01:49;102120.41;;;0.92;100.00
72061;BME280;59925;52.136;5.420;2024-02-28T03:04:16;102115.28;;;0.90;100.00
72061;BME280;59925;52.136;5.420;2024-02-28T03:06:42;102119.44;;;0.85;100.00
72061;BME280;59925;52.136;5.420;2024-02-28T03:09:09;102110.38;;;0.79;100.00
72061;BME280;59925;52.136;5.420;2024-02-28T03:11:35;102115.50;;;0.81;100.00
72061;BME280;59925;52.136;5.420;2024-02-28T03:14:02;102114.16;;;0.85;100.00
72061;BME280;59925;52.136;5.420;2024-02-28T03:16:29;102106.56;;;0.90;100.00
72061;BME280;59925;52.136;5.420;2024-02-28T03:18:55;102107.69;;;0.96;100.00
72061;BME280;59925;52.136;5.420;2024-02-28T03:21:22;102104.03;;;0.97;100.00
72061;BME280;59925;52.136;5.420;2024-02-28T03:23:49;102100.09;;;0.93;100.00
72061;BME280;59925;52.136;5.420;2024-02-28T03:26:16;102100.09;;;0.93;100.00
72061;BME280;59925;52.136;5.420;2024-02-28T03:28:42;102100.44;;;0.89;100.00
72061;BME280;59925;52.136;5.420;2024-02-28T03:31:09;102100.63;;;0.88;100.00
72061;BME280;59925;52.136;5.420;2024-02-28T03:33:35;102101.13;;;0.83;100.00
72061;BME280;59925;52.136;5.420;2024-02-28T03:36:02;102110.06;;;0.82;100.00
72061;BME280;59925;52.136;5.420;2024-02-28T03:38:29;102101.59;;;0.87;100.00
72061;BME280;59925;52.136;5.420;2024-02-28T03:40:55;102110.84;;;0.91;100.00
72061;BME280;59925;52.136;5.420;2024-02-28T03:43:22;102107.53;;;0.89;100.00
72061;BME280;59925;52.136;5.420;2024-02-28T03:45:48;102106.19;;;0.93;100.00
72061;BME280;59925;52.136;5.420;2024-02-28T03:48:16;102107.50;;;0.97;100.00
72061;BME280;59925;52.136;5.420;2024-02-28T03:50:43;102105.16;;;1.02;100.00
72061;BME280;59925;52.136;5.420;2024-02-28T03:53:10;102109.25;;;1.05;100.00
72061;BME280;59925;52.136;5.420;2024-02-28T03:55:36;102104.28;;;1.10;100.00
72061;BME280;59925;52.136;5.420;2024-02-28T03:58:04;102114.84;;;1.10;100.00
72061;BME280;59925;52.136;5.420;2024-02-28T04:00:33;102108.22;;;1.14;100.00
72061;BME280;59925;52.136;5.420;2024-02-28T04:03:00;102114.00;;;1.18;100.00
72061;BME280;59925;52.136;5.420;2024-02-28T04:05:26;102111.63;;;1.23;100.00
72061;BME280;59925;52.136;5.420;2024-02-28T04:07:53;102116.56;;;1.26;100.00
72061;BME280;59925;52.136;5.420;2024-02-28T04:10:19;102110.75;;;1.31;100.00
72061;BME280;59925;52.136;5.420;2024-02-28T04:12:46;102116.22;;;1.29;100.00
72061;BME280;59925;52.136;5.420;2024-02-28T04:15:13;102108.94;;;1.31;100.00
72061;BME280;59925;52.136;5.420;2024-02-28T04:17:41;102110.09;;;1.29;100.00
72061;BME280;59925;52.136;5.420;2024-02-28T04:20:12;102113.69;;;1.36;100.00
72061;BME280;59925;52.136;5.420;2024-02-28T04:22:39;102123.88;;;1.39;100.00
72061;BME280;59925;52.136;5.420;2024-02-28T04:25:07;102118.72;;;1.46;100.00
72061;BME280;59925;52.136;5.420;2024-02-28T04:27:35;102110.97;;;1.44;100.00
72061;BME280;59925;52.136;5.420;2024-02-28T04:30:02;102112.09;;;1.50;100.00
72061;BME280;59925;52.136;5.420;2024-02-28T04:32:29;102108.91;;;1.55;100.00
72061;BME280;59925;52.136;5.420;2024-02-28T04:34:55;102113.41;;;1.54;100.00
72061;BME280;59925;52.136;5.420;2024-02-28T04:37:22;102112.03;;;1.58;100.00
72061;BME280;59925;52.136;5.420;2024-02-28T04:39:48;102105.94;;;1.58;100.00
72061;BME280;59925;52.136;5.420;2024-02-28T04:42:15;102104.28;;;1.57;100.00
72061;BME280;59925;52.136;5.420;2024-02-28T04:44:42;102097.19;;;1.57;100.00
72061;BME280;59925;52.136;5.420;2024-02-28T04:47:09;102114.69;;;1.58;100.00
72061;BME280;59925;52.136;5.420;2024-02-28T04:49:39;102114.84;;;1.57;100.00
72061;BME280;59925;52.136;5.420;2024-02-28T04:52:05;102121.59;;;1.59;100.00
72061;BME280;59925;52.136;5.420;2024-02-28T04:54:33;102127.19;;;1.64;100.00
72061;BME280;59925;52.136;5.420;2024-02-28T04:57:00;102135.13;;;1.64;100.00
72061;BME280;59925;52.136;5.420;2024-02-28T04:59:27;102139.88;;;1.69;100.00
72061;BME280;59925;52.136;5.420;2024-02-28T05:01:53;102136.88;;;1.72;100.00
72061;BME280;59925;52.136;5.420;2024-02-28T05:04:20;102138.53;;;1.73;100.00
72061;BME280;59925;52.136;5.420;2024-02-28T05:06:47;102138.06;;;1.70;100.00
72061;BME280;59925;52.136;5.420;2024-02-28T05:09:14;102134.22;;;1.72;100.00
72061;BME280;59925;52.136;5.420;2024-02-28T05:11:40;102133.03;;;1.75;100.00
72061;BME280;59925;52.136;5.420;2024-02-28T05:14:09;102137.16;;;1.77;100.00
72061;BME280;59925;52.136;5.420;2024-02-28T05:16:36;102134.16;;;1.80;100.00
72061;BME280;59925;52.136;5.420;2024-02-28T05:19:03;102137.91;;;1.86;100.00
72061;BME280;59925;52.136;5.420;2024-02-28T05:21:31;102134.75;;;1.91;100.00
72061;BME280;59925;52.136;5.420;2024-02-28T05:23:57;102138.00;;;1.93;100.00
72061;BME280;59925;52.136;5.420;2024-02-28T05:26:24;102134.19;;;1.95;100.00
72061;BME280;59925;52.136;5.420;2024-02-28T05:28:51;102142.59;;;1.99;100.00
72061;BME280;59925;52.136;5.420;2024-02-28T05:31:22;102138.22;;;2.06;100.00
72061;BME280;59925;52.136;5.420;2024-02-28T05:33:53;102135.06;;;2.11;100.00
72061;BME280;59925;52.136;5.420;2024-02-28T05:36:21;102141.78;;;2.13;100.00
72061;BME280;59925;52.136;5.420;2024-02-28T05:38:49;102140.59;;;2.16;100.00
72061;BME280;59925;52.136;5.420;2024-02-28T05:41:16;102138.25;;;2.21;100.00
72061;BME280;59925;52.136;5.420;2024-02-28T05:43:43;102143.00;;;2.26;100.00
72061;BME280;59925;52.136;5.420;2024-02-28T05:46:09;102146.94;;;2.30;100.00
72061;BME280;59925;52.136;5.420;2024-02-28T05:48:36;102139.59;;;2.32;100.00
72061;BME280;59925;52.136;5.420;2024-02-28T05:51:04;102132.31;;;2.34;100.00
72061;BME280;59925;52.136;5.420;2024-02-28T05:53:30;102131.16;;;2.37;100.00
72061;BME280;59925;52.136;5.420;2024-02-28T05:56:03;102134.03;;;2.42;100.00
72061;BME280;59925;52.136;5.420;2024-02-28T05:58:30;102132.88;;;2.44;100.00
72061;BME280;59925;52.136;5.420;2024-02-28T06:00:57;102132.50;;;2.48;100.00
72061;BME280;59925;52.136;5.420;2024-02-28T06:03:23;102130.69;;;2.48;100.00
72061;BME280;59925;52.136;5.420;2024-02-28T06:05:50;102132.31;;;2.49;100.00
72061;BME280;59925;52.136;5.420;2024-02-28T06:08:17;102128.47;;;2.52;100.00
72061;BME280;59925;52.136;5.420;2024-02-28T06:10:43;102136.22;;;2.53;100.00
72061;BME280;59925;52.136;5.420;2024-02-28T06:13:12;102139.72;;;2.54;100.00
72061;BME280;59925;52.136;5.420;2024-02-28T06:15:39;102136.22;;;2.53;100.00
72061;BME280;59925;52.136;5.420;2024-02-28T06:18:06;102141.34;;;2.55;100.00
72061;BME280;59925;52.136;5.420;2024-02-28T06:20:32;102138.72;;;2.55;100.00
72061;BME280;59925;52.136;5.420;2024-02-28T06:22:59;102142.81;;;2.57;100.00
72061;BME280;59925;52.136;5.420;2024-02-28T06:25:33;102151.41;;;2.59;100.00
72061;BME280;59925;52.136;5.420;2024-02-28T06:28:00;102153.84;;;2.61;100.00
72061;BME280;59925;52.136;5.420;2024-02-28T06:30:28;102153.69;;;2.63;100.00
72061;BME280;59925;52.136;5.420;2024-02-28T06:32:58;102150.03;;;2.64;100.00
72061;BME280;59925;52.136;5.420;2024-02-28T06:35:26;102155.78;;;2.67;100.00
72061;BME280;59925;52.136;5.420;2024-02-28T06:37:52;102155.59;;;2.69;100.00
72061;BME280;59925;52.136;5.420;2024-02-28T06:40:20;102156.03;;;2.72;100.00
72061;BME280;59925;52.136;5.420;2024-02-28T06:42:46;102159.97;;;2.76;100.00
72061;BME280;59925;52.136;5.420;2024-02-28T06:45:13;102164.91;;;2.80;100.00
72061;BME280;59925;52.136;5.420;2024-02-28T06:47:39;102174.28;;;2.82;100.00
72061;BME280;59925;52.136;5.420;2024-02-28T06:50:06;102170.63;;;2.83;100.00
72061;BME280;59925;52.136;5.420;2024-02-28T06:52:33;102176.56;;;2.85;100.00
72061;BME280;59925;52.136;5.420;2024-02-28T06:55:01;102182.53;;;2.87;100.00
72061;BME280;59925;52.136;5.420;2024-02-28T06:57:32;102193.13;;;2.87;100.00
72061;BME280;59925;52.136;5.420;2024-02-28T06:59:59;102201.50;;;2.91;100.00
72061;BME280;59925;52.136;5.420;2024-02-28T07:02:25;102200.16;;;2.95;100.00
72061;BME280;59925;52.136;5.420;2024-02-28T07:04:52;102196.09;;;2.99;100.00
72061;BME280;59925;52.136;5.420;2024-02-28T07:07:19;102196.56;;;3.03;100.00
72061;BME280;59925;52.136;5.420;2024-02-28T07:09:46;102209.25;;;3.08;100.00
72061;BME280;59925;52.136;5.420;2024-02-28T07:12:12;102206.25;;;3.11;100.00
72061;BME280;59925;52.136;5.420;2024-02-28T07:14:39;102199.75;;;3.13;100.00
72061;BME280;59925;52.136;5.420;2024-02-28T07:17:05;102206.06;;;3.12;100.00
72061;BME280;59925;52.136;5.420;2024-02-28T07:19:33;102204.22;;;3.13;100.00
72061;BME280;59925;52.136;5.420;2024-02-28T07:21:59;102212.00;;;3.14;100.00
72061;BME280;59925;52.136;5.420;2024-02-28T07:24:26;102211.16;;;3.14;100.00
72061;BME280;59925;52.136;5.420;2024-02-28T07:26:52;102215.09;;;3.18;100.00
72061;BME280;59925;52.136;5.420;2024-02-28T07:29:19;102211.78;;;3.16;100.00
72061;BME280;59925;52.136;5.420;2024-02-28T07:31:45;102217.09;;;3.16;100.00
72061;BME280;59925;52.136;5.420;2024-02-28T07:34:12;102219.94;;;3.14;100.00
72061;BME280;59925;52.136;5.420;2024-02-28T07:36:38;102221.19;;;3.18;100.00
72061;BME280;59925;52.136;5.420;2024-02-28T07:39:05;102220.81;;;3.21;100.00
72061;BME280;59925;52.136;5.420;2024-02-28T07:41:31;102232.06;;;3.24;100.00
72061;BME280;59925;52.136;5.420;2024-02-28T07:43:58;102230.69;;;3.28;100.00
72061;BME280;59925;52.136;5.420;2024-02-28T07:46:25;102236.66;;;3.30;100.00
72061;BME280;59925;52.136;5.420;2024-02-28T07:48:51;102237.91;;;3.34;100.00
72061;BME280;59925;52.136;5.420;2024-02-28T07:51:18;102231.59;;;3.35;100.00
72061;BME280;59925;52.136;5.420;2024-02-28T07:53:44;102227.94;;;3.36;100.00
72061;BME280;59925;52.136;5.420;2024-02-28T07:56:16;102222.63;;;3.36;100.00
72061;BME280;59925;52.136;5.420;2024-02-28T07:58:46;102242.47;;;3.40;100.00
72061;BME280;59925;52.136;5.420;2024-02-28T08:01:13;102246.56;;;3.43;100.00
72061;BME280;59925;52.136;5.420;2024-02-28T08:03:40;102238.63;;;3.43;100.00
72061;BME280;59925;52.136;5.420;2024-02-28T08:06:08;102246.75;;;3.41;100.00
72061;BME280;59925;52.136;5.420;2024-02-28T08:08:37;102250.50;;;3.47;100.00
72061;BME280;59925;52.136;5.420;2024-02-28T08:11:03;102258.25;;;3.48;100.00
72061;BME280;59925;52.136;5.420;2024-02-28T08:13:30;102263.19;;;3.51;100.00
72061;BME280;59925;52.136;5.420;2024-02-28T08:15:59;102259.53;;;3.52;100.00
72061;BME280;59925;52.136;5.420;2024-02-28T08:18:26;102260.81;;;3.57;100.00
72061;BME280;59925;52.136;5.420;2024-02-28T08:20:54;102262.44;;;3.58;100.00
72061;BME280;59925;52.136;5.420;2024-02-28T08:23:23;102259.25;;;3.62;100.00
72061;BME280;59925;52.136;5.420;2024-02-28T08:25:52;102260.88;;;3.63;100.00
72061;BME280;59925;52.136;5.420;2024-02-28T08:28:19;102269.28;;;3.67;100.00
72061;BME280;59925;52.136;5.420;2024-02-28T08:30:46;102277.03;;;3.68;100.00
72061;BME280;59925;52.136;5.420;2024-02-28T08:33:13;102274.81;;;3.72;100.00
72061;BME280;59925;52.136;5.420;2024-02-28T08:35:39;102273.66;;;3.75;100.00
72061;BME280;59925;52.136;5.420;2024-02-28T08:38:06;102280.41;;;3.77;100.00
72061;BME280;59925;52.136;5.420;2024-02-28T08:40:32;102279.66;;;3.83;100.00
72061;BME280;59925;52.136;5.420;2024-02-28T08:42:59;102283.00;;;3.92;100.00
72061;BME280;59925;52.136;5.420;2024-02-28T08:45:25;102287.28;;;3.93;100.00
72061;BME280;59925;52.136;5.420;2024-02-28T08:47:52;102287.94;;;3.95;100.00
72061;BME280;59925;52.136;5.420;2024-02-28T08:50:19;102289.94;;;3.93;100.00
72061;BME280;59925;52.136;5.420;2024-02-28T08:52:45;102278.16;;;3.96;100.00
72061;BME280;59925;52.136;5.420;2024-02-28T08:55:12;102282.81;;;3.94;100.00
72061;BME280;59925;52.136;5.420;2024-02-28T08:57:39;102284.53;;;4.02;100.00
72061;BME280;59925;52.136;5.420;2024-02-28T09:00:06;102285.78;;;4.06;100.00
72061;BME280;59925;52.136;5.420;2024-02-28T09:02:35;102280.16;;;4.16;100.00
72061;BME280;59925;52.136;5.420;2024-02-28T09:05:04;102277.56;;;4.22;100.00
72061;BME280;59925;52.136;5.420;2024-02-28T09:07:30;102273.13;;;4.29;100.00
72061;BME280;59925;52.136;5.420;2024-02-28T09:09:57;102279.09;;;4.38;100.00
72061;BME280;59925;52.136;5.420;2024-02-28T09:12:23;102271.66;;;4.49;100.00
72061;BME280;59925;52.136;5.420;2024-02-28T09:14:50;102277.97;;;4.48;100.00
72061;BME280;59925;52.136;5.420;2024-02-28T09:17:23;102261.25;;;4.54;100.00
72061;BME280;59925;52.136;5.420;2024-02-28T09:19:49;102254.16;;;4.61;100.00
72061;BME280;59925;52.136;5.420;2024-02-28T09:22:16;102257.72;;;4.75;100.00
72061;BME280;59925;52.136;5.420;2024-02-28T09:24:43;102262.06;;;4.83;100.00
72061;BME280;59925;52.136;5.420;2024-02-28T09:27:10;102264.66;;;4.76;100.00
72061;BME280;59925;52.136;5.420;2024-02-28T09:29:36;102266.94;;;4.79;100.00
72061;BME280;59925;52.136;5.420;2024-02-28T09:32:03;102271.44;;;4.79;100.00
72061;BME280;59925;52.136;5.420;2024-02-28T09:34:30;102272.06;;;4.81;100.00
72061;BME280;59925;52.136;5.420;2024-02-28T09:36:57;102270.13;;;5.03;100.00
72061;BME280;59925;52.136;5.420;2024-02-28T09:39:23;102273.00;;;5.01;100.00
72061;BME280;59925;52.136;5.420;2024-02-28T09:41:50;102275.06;;;5.06;100.00
72061;BME280;59925;52.136;5.420;2024-02-28T09:44:17;102269.16;;;5.11;100.00
72061;BME280;59925;52.136;5.420;2024-02-28T09:46:44;102274.94;;;5.21;100.00
72061;BME280;59925;52.136;5.420;2024-02-28T09:49:11;102269.66;;;5.34;100.00
72061;BME280;59925;52.136;5.420;2024-02-28T09:51:39;102277.97;;;5.66;100.00
72061;BME280;59925;52.136;5.420;2024-02-28T09:54:06;102278.00;;;5.87;100.00
72061;BME280;59925;52.136;5.420;2024-02-28T09:56:33;102274.16;;;6.03;100.00
72061;BME280;59925;52.136;5.420;2024-02-28T09:59:00;102279.91;;;6.06;100.00
72061;BME280;59925;52.136;5.420;2024-02-28T10:01:29;102279.09;;;6.19;100.00
72061;BME280;59925;52.136;5.420;2024-02-28T10:03:56;102283.19;;;6.22;100.00
72061;BME280;59925;52.136;5.420;2024-02-28T10:06:23;102283.41;;;6.07;100.00
72061;BME280;59925;52.136;5.420;2024-02-28T10:08:51;102289.94;;;6.11;100.00
72061;BME280;59925;52.136;5.420;2024-02-28T10:11:22;102290.16;;;6.16;100.00
72061;BME280;59925;52.136;5.420;2024-02-28T10:13:49;102292.19;;;6.27;100.00
72061;BME280;59925;52.136;5.420;2024-02-28T10:16:16;102292.19;;;6.21;100.00
72061;BME280;59925;52.136;5.420;2024-02-28T10:18:43;102288.28;;;6.23;100.00
72061;BME280;59925;52.136;5.420;2024-02-28T10:21:13;102283.41;;;6.40;100.00
72061;BME280;59925;52.136;5.420;2024-02-28T10:23:41;102295.09;;;6.46;100.00
72061;BME280;59925;52.136;5.420;2024-02-28T10:26:11;102293.22;;;6.53;100.00
72061;BME280;59925;52.136;5.420;2024-02-28T10:28:40;102291.56;;;6.52;100.00
72061;BME280;59925;52.136;5.420;2024-02-28T10:31:07;102292.59;;;6.58;100.00
72061;BME280;59925;52.136;5.420;2024-02-28T10:33:34;102285.81;;;6.69;100.00
72061;BME280;59925;52.136;5.420;2024-02-28T10:36:03;102287.63;;;6.88;100.00
72061;BME280;59925;52.136;5.420;2024-02-28T10:38:31;102293.81;;;6.82;100.00
72061;BME280;59925;52.136;5.420;2024-02-28T10:41:02;102292.75;;;6.90;100.00
72061;BME280;59925;52.136;5.420;2024-02-28T10:43:29;102293.41;;;6.85;100.00
72061;BME280;59925;52.136;5.420;2024-02-28T10:46:00;102290.28;;;6.88;100.00
72061;BME280;59925;52.136;5.420;2024-02-28T10:48:29;102284.34;;;7.00;100.00
72061;BME280;59925;52.136;5.420;2024-02-28T10:50:56;102285.31;;;7.12;100.00
72061;BME280;59925;52.136;5.420;2024-02-28T10:53:32;102285.28;;;7.26;100.00
72061;BME280;59925;52.136;5.420;2024-02-28T10:56:02;102281.78;;;7.25;100.00
72061;BME280;59925;52.136;5.420;2024-02-28T10:58:35;102270.28;;;7.31;100.00
72061;BME280;59925;52.136;5.420;2024-02-28T11:01:03;102269.81;;;7.34;100.00
72061;BME280;59925;52.136;5.420;2024-02-28T11:03:30;102264.78;;;7.65;100.00
72061;BME280;59925;52.136;5.420;2024-02-28T11:05:57;102261.47;;;7.95;100.00
72061;BME280;59925;52.136;5.420;2024-02-28T11:08:26;102259.47;;;8.16;100.00
72061;BME280;59925;52.136;5.420;2024-02-28T11:10:58;102262.13;;;8.41;100.00
72061;BME280;59925;52.136;5.420;2024-02-28T11:13:27;102257.53;;;8.55;100.00
72061;BME280;59925;52.136;5.420;2024-02-28T11:15:54;102266.44;;;8.67;100.00
72061;BME280;59925;52.136;5.420;2024-02-28T11:18:23;102262.00;;;8.80;100.00
72061;BME280;59925;52.136;5.420;2024-02-28T11:20:50;102260.50;;;8.65;100.00
72061;BME280;59925;52.136;5.420;2024-02-28T11:23:17;102256.91;;;8.53;100.00
72061;BME280;59925;52.136;5.420;2024-02-28T11:25:44;102256.78;;;8.41;100.00
72061;BME280;59925;52.136;5.420;2024-02-28T11:28:10;102249.34;;;8.24;100.00
72061;BME280;59925;52.136;5.420;2024-02-28T11:30:37;102247.72;;;8.23;100.00
72061;BME280;59925;52.136;5.420;2024-02-28T11:33:04;102252.31;;;8.09;100.00
72061;BME280;59925;52.136;5.420;2024-02-28T11:35:32;102252.69;;;8.20;100.00
72061;BME280;59925;52.136;5.420;2024-02-28T11:37:59;102252.44;;;8.21;100.00
72061;BME280;59925;52.136;5.420;2024-02-28T11:40:25;102252.81;;;8.25;100.00
72061;BME280;59925;52.136;5.420;2024-02-28T11:42:54;102244.59;;;8.26;100.00
72061;BME280;59925;52.136;5.420;2024-02-28T11:45:21;102246.28;;;8.21;100.00
72061;BME280;59925;52.136;5.420;2024-02-28T11:47:48;102250.00;;;8.20;100.00
72061;BME280;59925;52.136;5.420;2024-02-28T11:50:15;102246.50;;;8.19;100.00
72061;BME280;59925;52.136;5.420;2024-02-28T11:52:42;102236.97;;;8.05;100.00
72061;BME280;59925;52.136;5.420;2024-02-28T11:55:09;102232.44;;;8.05;100.00
72061;BME280;59925;52.136;5.420;2024-02-28T11:57:37;102249.22;;;8.12;100.00
72061;BME280;59925;52.136;5.420;2024-02-28T12:00:07;102243.13;;;8.05;100.00
72061;BME280;59925;52.136;5.420;2024-02-28T12:02:34;102242.19;;;8.18;100.00
72061;BME280;59925;52.136;5.420;2024-02-28T12:05:02;102236.72;;;8.13;100.00
72061;BME280;59925;52.136;5.420;2024-02-28T12:07:31;102232.34;;;8.19;100.00
72061;BME280;59925;52.136;5.420;2024-02-28T12:09:59;102224.47;;;8.24;100.00
72061;BME280;59925;52.136;5.420;2024-02-28T12:12:29;102227.09;;;8.31;100.00
72061;BME280;59925;52.136;5.420;2024-02-28T12:14:59;102225.38;;;8.36;100.00
72061;BME280;59925;52.136;5.420;2024-02-28T12:17:26;102225.53;;;8.48;100.00
72061;BME280;59925;52.136;5.420;2024-02-28T12:19:53;102223.44;;;8.50;100.00
72061;BME280;59925;52.136;5.420;2024-02-28T12:22:22;102220.38;;;8.47;100.00
72061;BME280;59925;52.136;5.420;2024-02-28T12:24:48;102218.69;;;8.52;100.00
72061;BME280;59925;52.136;5.420;2024-02-28T12:27:15;102222.34;;;8.58;100.00
72061;BME280;59925;52.136;5.420;2024-02-28T12:29:41;102222.72;;;8.62;100.00
72061;BME280;59925;52.136;5.420;2024-02-28T12:32:09;102218.41;;;8.79;100.00
72061;BME280;59925;52.136;5.420;2024-02-28T12:34:35;102220.47;;;8.96;100.00
72061;BME280;59925;52.136;5.420;2024-02-28T12:37:02;102220.19;;;9.04;100.00
72061;BME280;59925;52.136;5.420;2024-02-28T12:39:30;102215.47;;;9.18;100.00
72061;BME280;59925;52.136;5.420;2024-02-28T12:42:00;102212.50;;;9.38;100.00
72061;BME280;59925;52.136;5.420;2024-02-28T12:44:27;102217.34;;;9.60;100.00
72061;BME280;59925;52.136;5.420;2024-02-28T12:46:53;102212.16;;;9.34;100.00
72061;BME280;59925;52.136;5.420;2024-02-28T12:49:20;102211.91;;;9.24;100.00